sensor_id;sensor_type;location;lat;lon;timestamp;P1;durP1;ratioP1;P2;durP2;ratioP2
68763;SDS011;55754;52.038;5.566;2023-03-23T00:00:03;8.65;;;3.70;;
68763;SDS011;55754;52.038;5.566;2023-03-23T00:02:32;8.30;;;3.80;;
68763;SDS011;55754;52.038;5.566;2023-03-23T00:05:00;11.10;;;3.20;;
68763;SDS011;55754;52.038;5.566;2023-03-23T00:07:28;8.45;;;3.30;;
68763;SDS011;55754;52.038;5.566;2023-03-23T00:09:54;8.27;;;3.45;;
68763;SDS011;55754;52.038;5.566;2023-03-23T00:12:21;8.15;;;3.35;;
68763;SDS011;55754;52.038;5.566;2023-03-23T00:15:01;10.07;;;3.60;;
68763;SDS011;55754;52.038;5.566;2023-03-23T00:17:28;9.65;;;3.45;;
68763;SDS011;55754;52.038;5.566;2023-03-23T00:19:54;8.68;;;3.38;;
68763;SDS011;55754;52.038;5.566;2023-03-23T00:22:20;7.18;;;3.03;;
68763;SDS011;55754;52.038;5.566;2023-03-23T00:24:46;9.60;;;3.50;;
68763;SDS011;55754;52.038;5.566;2023-03-23T00:27:15;8.68;;;3.20;;
68763;SDS011;55754;52.038;5.566;2023-03-23T00:29:46;10.13;;;3.30;;
68763;SDS011;55754;52.038;5.566;2023-03-23T00:32:12;7.20;;;3.03;;
68763;SDS011;55754;52.038;5.566;2023-03-23T00:34:40;9.27;;;3.30;;
68763;SDS011;55754;52.038;5.566;2023-03-23T00:37:08;8.17;;;3.23;;
68763;SDS011;55754;52.038;5.566;2023-03-23T00:39:34;9.35;;;3.08;;
68763;SDS011;55754;52.038;5.566;2023-03-23T00:42:04;10.35;;;3.65;;
68763;SDS011;55754;52.038;5.566;2023-03-23T00:44:31;7.90;;;3.50;;
68763;SDS011;55754;52.038;5.566;2023-03-23T00:47:00;7.63;;;3.25;;
68763;SDS011;55754;52.038;5.566;2023-03-23T00:49:28;7.10;;;3.10;;
68763;SDS011;55754;52.038;5.566;2023-03-23T00:51:55;7.38;;;3.10;;
68763;SDS011;55754;52.038;5.566;2023-03-23T00:54:22;7.82;;;3.20;;
68763;SDS011;55754;52.038;5.566;2023-03-23T00:56:48;7.50;;;3.03;;
68763;SDS011;55754;52.038;5.566;2023-03-23T00:59:15;7.22;;;3.20;;
68763;SDS011;55754;52.038;5.566;2023-03-23T01:01:41;7.23;;;3.40;;
68763;SDS011;55754;52.038;5.566;2023-03-23T01:04:07;7.45;;;2.78;;
68763;SDS011;55754;52.038;5.566;2023-03-23T01:06:34;7.15;;;2.88;;
68763;SDS011;55754;52.038;5.566;2023-03-23T01:09:04;6.75;;;2.80;;
68763;SDS011;55754;52.038;5.566;2023-03-23T01:11:32;8.37;;;2.73;;
68763;SDS011;55754;52.038;5.566;2023-03-23T01:13:58;9.20;;;2.97;;
68763;SDS011;55754;52.038;5.566;2023-03-23T01:16:24;5.93;;;2.70;;
68763;SDS011;55754;52.038;5.566;2023-03-23T01:18:49;6.20;;;2.53;;
68763;SDS011;55754;52.038;5.566;2023-03-23T01:21:15;7.07;;;2.80;;
68763;SDS011;55754;52.038;5.566;2023-03-23T01:23:44;7.15;;;2.83;;
68763;SDS011;55754;52.038;5.566;2023-03-23T01:26:11;7.63;;;2.85;;
68763;SDS011;55754;52.038;5.566;2023-03-23T01:28:38;9.32;;;3.05;;
68763;SDS011;55754;52.038;5.566;2023-03-23T01:31:14;8.17;;;2.70;;
68763;SDS011;55754;52.038;5.566;2023-03-23T01:33:42;7.53;;;2.92;;
68763;SDS011;55754;52.038;5.566;2023-03-23T01:36:16;8.05;;;2.90;;
68763;SDS011;55754;52.038;5.566;2023-03-23T01:38:44;6.25;;;2.60;;
68763;SDS011;55754;52.038;5.566;2023-03-23T01:41:11;8.40;;;2.90;;
68763;SDS011;55754;52.038;5.566;2023-03-23T01:43:53;7.00;;;2.93;;
68763;SDS011;55754;52.038;5.566;2023-03-23T01:46:23;6.68;;;3.00;;
68763;SDS011;55754;52.038;5.566;2023-03-23T01:48:50;8.30;;;2.92;;
68763;SDS011;55754;52.038;5.566;2023-03-23T01:51:16;7.35;;;2.90;;
68763;SDS011;55754;52.038;5.566;2023-03-23T01:56:21;7.22;;;3.00;;
68763;SDS011;55754;52.038;5.566;2023-03-23T01:58:54;7.05;;;3.15;;
68763;SDS011;55754;52.038;5.566;2023-03-23T02:01:21;7.18;;;3.00;;
68763;SDS011;55754;52.038;5.566;2023-03-23T02:03:49;8.00;;;3.33;;
68763;SDS011;55754;52.038;5.566;2023-03-23T02:06:16;7.63;;;2.87;;
68763;SDS011;55754;52.038;5.566;2023-03-23T02:08:42;7.57;;;3.00;;
68763;SDS011;55754;52.038;5.566;2023-03-23T02:11:13;9.37;;;3.30;;
68763;SDS011;55754;52.038;5.566;2023-03-23T02:13:43;9.70;;;3.05;;
68763;SDS011;55754;52.038;5.566;2023-03-23T02:18:45;7.15;;;3.08;;
68763;SDS011;55754;52.038;5.566;2023-03-23T02:36:03;7.72;;;3.40;;
68763;SDS011;55754;52.038;5.566;2023-03-23T02:38:32;9.67;;;3.37;;
68763;SDS011;55754;52.038;5.566;2023-03-23T02:41:03;7.18;;;3.42;;
68763;SDS011;55754;52.038;5.566;2023-03-23T02:43:38;6.20;;;3.17;;
68763;SDS011;55754;52.038;5.566;2023-03-23T02:46:07;6.55;;;3.10;;
68763;SDS011;55754;52.038;5.566;2023-03-23T02:48:35;7.20;;;3.50;;
68763;SDS011;55754;52.038;5.566;2023-03-23T02:51:01;6.93;;;3.23;;
68763;SDS011;55754;52.038;5.566;2023-03-23T02:53:28;6.40;;;3.22;;
68763;SDS011;55754;52.038;5.566;2023-03-23T02:55:55;9.50;;;3.50;;
68763;SDS011;55754;52.038;5.566;2023-03-23T02:58:23;6.95;;;3.00;;
68763;SDS011;55754;52.038;5.566;2023-03-23T03:00:49;8.00;;;3.53;;
68763;SDS011;55754;52.038;5.566;2023-03-23T03:03:26;7.30;;;3.30;;
68763;SDS011;55754;52.038;5.566;2023-03-23T03:06:05;7.93;;;3.25;;
68763;SDS011;55754;52.038;5.566;2023-03-23T03:08:49;7.45;;;3.25;;
68763;SDS011;55754;52.038;5.566;2023-03-23T03:11:19;7.85;;;3.25;;
68763;SDS011;55754;52.038;5.566;2023-03-23T03:14:05;7.00;;;3.20;;
68763;SDS011;55754;52.038;5.566;2023-03-23T03:16:36;7.60;;;3.27;;
68763;SDS011;55754;52.038;5.566;2023-03-23T03:21:35;8.77;;;3.20;;
68763;SDS011;55754;52.038;5.566;2023-03-23T03:24:03;8.65;;;3.20;;
68763;SDS011;55754;52.038;5.566;2023-03-23T03:26:39;8.35;;;2.85;;
68763;SDS011;55754;52.038;5.566;2023-03-23T03:29:11;9.27;;;2.83;;
68763;SDS011;55754;52.038;5.566;2023-03-23T03:31:38;6.70;;;2.78;;
68763;SDS011;55754;52.038;5.566;2023-03-23T03:34:06;6.80;;;2.67;;
68763;SDS011;55754;52.038;5.566;2023-03-23T03:36:32;7.82;;;2.80;;
68763;SDS011;55754;52.038;5.566;2023-03-23T03:39:00;8.02;;;2.60;;
68763;SDS011;55754;52.038;5.566;2023-03-23T03:41:32;8.90;;;2.50;;
68763;SDS011;55754;52.038;5.566;2023-03-23T03:43:58;7.70;;;2.88;;
68763;SDS011;55754;52.038;5.566;2023-03-23T03:46:24;7.30;;;2.73;;
68763;SDS011;55754;52.038;5.566;2023-03-23T03:48:52;6.43;;;2.80;;
68763;SDS011;55754;52.038;5.566;2023-03-23T03:51:18;10.18;;;2.97;;
68763;SDS011;55754;52.038;5.566;2023-03-23T03:53:43;8.73;;;2.90;;
68763;SDS011;55754;52.038;5.566;2023-03-23T03:56:09;7.18;;;2.97;;
68763;SDS011;55754;52.038;5.566;2023-03-23T03:58:36;7.80;;;2.97;;
68763;SDS011;55754;52.038;5.566;2023-03-23T04:01:02;6.33;;;2.70;;
68763;SDS011;55754;52.038;5.566;2023-03-23T04:03:28;6.72;;;2.80;;
68763;SDS011;55754;52.038;5.566;2023-03-23T04:05:54;7.40;;;2.73;;
68763;SDS011;55754;52.038;5.566;2023-03-23T04:08:21;8.50;;;2.97;;
68763;SDS011;55754;52.038;5.566;2023-03-23T04:10:47;8.48;;;2.80;;
68763;SDS011;55754;52.038;5.566;2023-03-23T04:13:13;6.07;;;2.90;;
68763;SDS011;55754;52.038;5.566;2023-03-23T04:15:43;7.40;;;2.80;;
68763;SDS011;55754;52.038;5.566;2023-03-23T04:18:09;8.80;;;3.03;;
68763;SDS011;55754;52.038;5.566;2023-03-23T04:20:34;6.85;;;2.60;;
68763;SDS011;55754;52.038;5.566;2023-03-23T04:23:02;9.10;;;2.67;;
68763;SDS011;55754;52.038;5.566;2023-03-23T04:25:28;8.27;;;3.00;;
68763;SDS011;55754;52.038;5.566;2023-03-23T04:27:53;11.87;;;2.83;;
68763;SDS011;55754;52.038;5.566;2023-03-23T04:30:22;6.88;;;2.67;;
68763;SDS011;55754;52.038;5.566;2023-03-23T04:32:50;8.93;;;2.50;;
68763;SDS011;55754;52.038;5.566;2023-03-23T04:35:20;7.75;;;2.67;;
68763;SDS011;55754;52.038;5.566;2023-03-23T04:37:48;8.90;;;2.60;;
68763;SDS011;55754;52.038;5.566;2023-03-23T04:40:14;11.43;;;2.55;;
68763;SDS011;55754;52.038;5.566;2023-03-23T04:42:41;7.55;;;2.28;;
68763;SDS011;55754;52.038;5.566;2023-03-23T04:45:12;8.53;;;2.40;;
68763;SDS011;55754;52.038;5.566;2023-03-23T04:47:40;6.93;;;2.20;;
68763;SDS011;55754;52.038;5.566;2023-03-23T04:50:18;8.13;;;2.17;;
68763;SDS011;55754;52.038;5.566;2023-03-23T04:52:49;8.82;;;2.30;;
68763;SDS011;55754;52.038;5.566;2023-03-23T04:55:16;6.53;;;2.00;;
68763;SDS011;55754;52.038;5.566;2023-03-23T04:57:44;7.87;;;2.20;;
68763;SDS011;55754;52.038;5.566;2023-03-23T05:00:10;8.07;;;2.20;;
68763;SDS011;55754;52.038;5.566;2023-03-23T05:02:43;7.47;;;2.05;;
68763;SDS011;55754;52.038;5.566;2023-03-23T05:05:11;6.90;;;2.07;;
68763;SDS011;55754;52.038;5.566;2023-03-23T05:07:39;9.25;;;2.03;;
68763;SDS011;55754;52.038;5.566;2023-03-23T05:10:06;8.07;;;2.42;;
68763;SDS011;55754;52.038;5.566;2023-03-23T05:12:33;10.30;;;2.10;;
68763;SDS011;55754;52.038;5.566;2023-03-23T05:14:59;7.10;;;1.83;;
68763;SDS011;55754;52.038;5.566;2023-03-23T05:17:25;10.30;;;2.07;;
68763;SDS011;55754;52.038;5.566;2023-03-23T05:19:51;6.93;;;2.10;;
68763;SDS011;55754;52.038;5.566;2023-03-23T05:22:17;7.88;;;1.83;;
68763;SDS011;55754;52.038;5.566;2023-03-23T05:24:45;9.87;;;2.20;;
68763;SDS011;55754;52.038;5.566;2023-03-23T05:27:12;8.68;;;2.08;;
68763;SDS011;55754;52.038;5.566;2023-03-23T05:29:39;9.48;;;1.92;;
68763;SDS011;55754;52.038;5.566;2023-03-23T05:32:06;7.78;;;1.83;;
68763;SDS011;55754;52.038;5.566;2023-03-23T05:34:32;9.35;;;1.85;;
68763;SDS011;55754;52.038;5.566;2023-03-23T05:37:01;8.97;;;2.23;;
68763;SDS011;55754;52.038;5.566;2023-03-23T05:39:28;9.10;;;1.95;;
68763;SDS011;55754;52.038;5.566;2023-03-23T05:41:57;9.65;;;1.80;;
68763;SDS011;55754;52.038;5.566;2023-03-23T05:44:23;9.35;;;1.90;;
68763;SDS011;55754;52.038;5.566;2023-03-23T05:46:49;7.93;;;1.90;;
68763;SDS011;55754;52.038;5.566;2023-03-23T05:49:17;10.30;;;1.90;;
68763;SDS011;55754;52.038;5.566;2023-03-23T05:51:43;12.40;;;2.20;;
68763;SDS011;55754;52.038;5.566;2023-03-23T05:54:09;11.20;;;2.20;;
68763;SDS011;55754;52.038;5.566;2023-03-23T05:56:35;11.70;;;2.33;;
68763;SDS011;55754;52.038;5.566;2023-03-23T05:59:01;12.30;;;2.42;;
68763;SDS011;55754;52.038;5.566;2023-03-23T06:01:27;8.90;;;1.98;;
68763;SDS011;55754;52.038;5.566;2023-03-23T06:03:56;9.80;;;1.95;;
68763;SDS011;55754;52.038;5.566;2023-03-23T06:06:24;6.97;;;1.90;;
68763;SDS011;55754;52.038;5.566;2023-03-23T06:08:54;9.30;;;1.83;;
68763;SDS011;55754;52.038;5.566;2023-03-23T06:11:20;7.88;;;1.77;;
68763;SDS011;55754;52.038;5.566;2023-03-23T06:13:45;9.50;;;1.70;;
68763;SDS011;55754;52.038;5.566;2023-03-23T06:16:11;6.78;;;1.73;;
68763;SDS011;55754;52.038;5.566;2023-03-23T06:18:36;8.43;;;2.10;;
68763;SDS011;55754;52.038;5.566;2023-03-23T06:21:08;12.80;;;3.03;;
68763;SDS011;55754;52.038;5.566;2023-03-23T06:23:35;8.60;;;2.63;;
68763;SDS011;55754;52.038;5.566;2023-03-23T06:26:03;10.43;;;2.72;;
68763;SDS011;55754;52.038;5.566;2023-03-23T06:28:30;10.50;;;3.77;;
68763;SDS011;55754;52.038;5.566;2023-03-23T06:31:00;11.10;;;3.08;;
68763;SDS011;55754;52.038;5.566;2023-03-23T06:33:31;15.18;;;3.50;;
68763;SDS011;55754;52.038;5.566;2023-03-23T06:35:58;7.75;;;2.50;;
68763;SDS011;55754;52.038;5.566;2023-03-23T06:38:25;9.20;;;2.33;;
68763;SDS011;55754;52.038;5.566;2023-03-23T06:40:54;9.80;;;2.30;;
68763;SDS011;55754;52.038;5.566;2023-03-23T06:43:20;8.13;;;2.33;;
68763;SDS011;55754;52.038;5.566;2023-03-23T06:45:46;12.15;;;2.30;;
68763;SDS011;55754;52.038;5.566;2023-03-23T06:48:12;7.97;;;2.10;;
68763;SDS011;55754;52.038;5.566;2023-03-23T06:50:38;8.68;;;2.25;;
68763;SDS011;55754;52.038;5.566;2023-03-23T06:53:06;10.45;;;2.45;;
68763;SDS011;55754;52.038;5.566;2023-03-23T06:55:32;9.70;;;2.60;;
68763;SDS011;55754;52.038;5.566;2023-03-23T06:57:58;10.27;;;2.30;;
68763;SDS011;55754;52.038;5.566;2023-03-23T07:00:27;9.17;;;2.20;;
68763;SDS011;55754;52.038;5.566;2023-03-23T07:02:54;9.93;;;2.30;;
68763;SDS011;55754;52.038;5.566;2023-03-23T07:05:23;7.93;;;2.10;;
68763;SDS011;55754;52.038;5.566;2023-03-23T07:07:49;7.50;;;1.90;;
68763;SDS011;55754;52.038;5.566;2023-03-23T07:10:16;8.75;;;2.22;;
68763;SDS011;55754;52.038;5.566;2023-03-23T07:12:41;9.47;;;2.50;;
68763;SDS011;55754;52.038;5.566;2023-03-23T07:15:28;10.80;;;2.22;;
68763;SDS011;55754;52.038;5.566;2023-03-23T07:17:54;7.38;;;1.90;;
68763;SDS011;55754;52.038;5.566;2023-03-23T07:20:20;9.83;;;1.97;;
68763;SDS011;55754;52.038;5.566;2023-03-23T07:22:47;8.68;;;1.80;;
68763;SDS011;55754;52.038;5.566;2023-03-23T07:25:13;8.88;;;2.10;;
68763;SDS011;55754;52.038;5.566;2023-03-23T07:27:38;6.27;;;1.70;;
68763;SDS011;55754;52.038;5.566;2023-03-23T07:30:06;8.63;;;1.70;;
68763;SDS011;55754;52.038;5.566;2023-03-23T07:32:32;8.13;;;1.70;;
68763;SDS011;55754;52.038;5.566;2023-03-23T07:34:58;8.13;;;1.77;;
68763;SDS011;55754;52.038;5.566;2023-03-23T07:37:23;9.70;;;1.73;;
68763;SDS011;55754;52.038;5.566;2023-03-23T07:39:49;10.40;;;1.90;;
68763;SDS011;55754;52.038;5.566;2023-03-23T07:42:15;7.50;;;1.53;;
68763;SDS011;55754;52.038;5.566;2023-03-23T07:44:40;6.85;;;1.48;;
68763;SDS011;55754;52.038;5.566;2023-03-23T07:47:06;8.50;;;1.80;;
68763;SDS011;55754;52.038;5.566;2023-03-23T07:49:32;5.47;;;1.50;;
68763;SDS011;55754;52.038;5.566;2023-03-23T07:51:57;7.33;;;1.90;;
68763;SDS011;55754;52.038;5.566;2023-03-23T07:54:23;9.20;;;1.73;;
68763;SDS011;55754;52.038;5.566;2023-03-23T07:56:49;7.90;;;1.80;;
68763;SDS011;55754;52.038;5.566;2023-03-23T07:59:15;10.15;;;1.90;;
68763;SDS011;55754;52.038;5.566;2023-03-23T08:01:42;8.85;;;2.17;;
68763;SDS011;55754;52.038;5.566;2023-03-23T08:04:07;8.10;;;1.93;;
68763;SDS011;55754;52.038;5.566;2023-03-23T08:06:33;9.98;;;2.08;;
68763;SDS011;55754;52.038;5.566;2023-03-23T08:09:00;8.50;;;1.97;;
68763;SDS011;55754;52.038;5.566;2023-03-23T08:11:27;9.32;;;1.83;;
68763;SDS011;55754;52.038;5.566;2023-03-23T08:13:53;7.10;;;2.00;;
68763;SDS011;55754;52.038;5.566;2023-03-23T08:16:19;9.50;;;2.60;;
68763;SDS011;55754;52.038;5.566;2023-03-23T08:18:45;7.57;;;2.10;;
68763;SDS011;55754;52.038;5.566;2023-03-23T08:21:11;8.13;;;2.17;;
68763;SDS011;55754;52.038;5.566;2023-03-23T08:23:38;9.77;;;2.45;;
68763;SDS011;55754;52.038;5.566;2023-03-23T08:26:06;6.35;;;2.20;;
68763;SDS011;55754;52.038;5.566;2023-03-23T08:28:33;8.70;;;2.95;;
68763;SDS011;55754;52.038;5.566;2023-03-23T08:31:00;9.73;;;3.63;;
68763;SDS011;55754;52.038;5.566;2023-03-23T08:33:31;9.85;;;3.88;;
68763;SDS011;55754;52.038;5.566;2023-03-23T08:35:58;12.50;;;3.33;;
68763;SDS011;55754;52.038;5.566;2023-03-23T08:38:27;6.70;;;2.42;;
68763;SDS011;55754;52.038;5.566;2023-03-23T08:40:57;11.27;;;2.75;;
68763;SDS011;55754;52.038;5.566;2023-03-23T08:43:24;9.30;;;3.40;;
68763;SDS011;55754;52.038;5.566;2023-03-23T08:45:50;9.10;;;3.17;;
68763;SDS011;55754;52.038;5.566;2023-03-23T08:48:16;11.73;;;3.35;;
68763;SDS011;55754;52.038;5.566;2023-03-23T08:50:42;8.95;;;2.67;;
68763;SDS011;55754;52.038;5.566;2023-03-23T08:53:08;8.83;;;2.53;;
68763;SDS011;55754;52.038;5.566;2023-03-23T08:55:34;8.68;;;2.28;;
68763;SDS011;55754;52.038;5.566;2023-03-23T08:58:03;11.20;;;2.33;;
68763;SDS011;55754;52.038;5.566;2023-03-23T09:00:29;7.13;;;1.70;;
68763;SDS011;55754;52.038;5.566;2023-03-23T09:02:55;6.40;;;1.80;;
68763;SDS011;55754;52.038;5.566;2023-03-23T09:05:23;9.70;;;1.90;;
68763;SDS011;55754;52.038;5.566;2023-03-23T09:07:53;8.48;;;2.25;;
68763;SDS011;55754;52.038;5.566;2023-03-23T09:10:23;11.18;;;3.60;;
68763;SDS011;55754;52.038;5.566;2023-03-23T09:12:49;7.45;;;1.75;;
68763;SDS011;55754;52.038;5.566;2023-03-23T09:15:16;8.00;;;1.83;;
68763;SDS011;55754;52.038;5.566;2023-03-23T09:17:46;8.93;;;1.87;;
68763;SDS011;55754;52.038;5.566;2023-03-23T09:20:15;5.15;;;1.73;;
68763;SDS011;55754;52.038;5.566;2023-03-23T09:22:44;8.25;;;2.10;;
68763;SDS011;55754;52.038;5.566;2023-03-23T09:25:12;6.78;;;1.80;;
68763;SDS011;55754;52.038;5.566;2023-03-23T09:27:42;7.28;;;1.95;;
68763;SDS011;55754;52.038;5.566;2023-03-23T09:30:09;8.50;;;2.07;;
68763;SDS011;55754;52.038;5.566;2023-03-23T09:32:37;8.90;;;2.20;;
68763;SDS011;55754;52.038;5.566;2023-03-23T09:35:04;7.18;;;2.10;;
68763;SDS011;55754;52.038;5.566;2023-03-23T09:37:37;10.55;;;2.30;;
68763;SDS011;55754;52.038;5.566;2023-03-23T09:40:04;10.88;;;2.20;;
68763;SDS011;55754;52.038;5.566;2023-03-23T09:45:02;8.82;;;1.95;;
68763;SDS011;55754;52.038;5.566;2023-03-23T09:47:47;8.80;;;1.90;;
68763;SDS011;55754;52.038;5.566;2023-03-23T09:50:27;8.97;;;1.70;;
68763;SDS011;55754;52.038;5.566;2023-03-23T09:55:41;10.13;;;2.22;;
68763;SDS011;55754;52.038;5.566;2023-03-23T09:58:18;12.02;;;2.00;;
68763;SDS011;55754;52.038;5.566;2023-03-23T10:03:32;9.13;;;2.00;;
68763;SDS011;55754;52.038;5.566;2023-03-23T10:06:04;10.18;;;1.95;;
68763;SDS011;55754;52.038;5.566;2023-03-23T10:08:32;12.15;;;2.22;;
68763;SDS011;55754;52.038;5.566;2023-03-23T10:16:29;10.00;;;1.90;;
68763;SDS011;55754;52.038;5.566;2023-03-23T10:19:07;11.20;;;1.98;;
68763;SDS011;55754;52.038;5.566;2023-03-23T10:21:59;8.48;;;1.70;;
68763;SDS011;55754;52.038;5.566;2023-03-23T10:24:43;10.90;;;2.20;;
68763;SDS011;55754;52.038;5.566;2023-03-23T10:29:50;9.57;;;2.00;;
68763;SDS011;55754;52.038;5.566;2023-03-23T10:32:23;13.68;;;2.20;;
68763;SDS011;55754;52.038;5.566;2023-03-23T10:35:35;9.90;;;1.92;;
68763;SDS011;55754;52.038;5.566;2023-03-23T10:38:11;11.90;;;2.00;;
68763;SDS011;55754;52.038;5.566;2023-03-23T10:40:50;9.07;;;2.20;;
68763;SDS011;55754;52.038;5.566;2023-03-23T10:43:20;11.67;;;1.90;;
68763;SDS011;55754;52.038;5.566;2023-03-23T10:45:48;10.13;;;2.03;;
68763;SDS011;55754;52.038;5.566;2023-03-23T10:48:24;11.25;;;2.00;;
68763;SDS011;55754;52.038;5.566;2023-03-23T10:50:57;10.32;;;2.05;;
68763;SDS011;55754;52.038;5.566;2023-03-23T10:53:34;13.90;;;2.35;;
68763;SDS011;55754;52.038;5.566;2023-03-23T10:56:02;9.17;;;1.80;;
68763;SDS011;55754;52.038;5.566;2023-03-23T10:58:33;8.20;;;1.88;;
68763;SDS011;55754;52.038;5.566;2023-03-23T11:01:00;10.02;;;2.20;;
68763;SDS011;55754;52.038;5.566;2023-03-23T11:03:47;9.45;;;1.90;;
68763;SDS011;55754;52.038;5.566;2023-03-23T11:06:22;8.18;;;2.00;;
68763;SDS011;55754;52.038;5.566;2023-03-23T11:11:25;11.13;;;2.05;;
68763;SDS011;55754;52.038;5.566;2023-03-23T11:13:56;9.20;;;1.95;;
68763;SDS011;55754;52.038;5.566;2023-03-23T11:16:27;10.60;;;1.98;;
68763;SDS011;55754;52.038;5.566;2023-03-23T11:18:55;8.68;;;1.70;;
68763;SDS011;55754;52.038;5.566;2023-03-23T11:21:23;9.37;;;1.77;;
68763;SDS011;55754;52.038;5.566;2023-03-23T11:23:53;9.13;;;1.73;;
68763;SDS011;55754;52.038;5.566;2023-03-23T11:31:45;10.13;;;2.38;;
68763;SDS011;55754;52.038;5.566;2023-03-23T11:34:19;10.20;;;1.90;;
68763;SDS011;55754;52.038;5.566;2023-03-23T11:40:14;9.70;;;1.90;;
68763;SDS011;55754;52.038;5.566;2023-03-23T11:45:24;8.73;;;1.90;;
68763;SDS011;55754;52.038;5.566;2023-03-23T11:48:19;11.97;;;2.17;;
68763;SDS011;55754;52.038;5.566;2023-03-23T11:51:39;7.85;;;1.90;;
68763;SDS011;55754;52.038;5.566;2023-03-23T11:54:15;7.95;;;1.70;;
68763;SDS011;55754;52.038;5.566;2023-03-23T11:57:06;10.30;;;2.05;;
68763;SDS011;55754;52.038;5.566;2023-03-23T11:59:36;8.85;;;1.40;;
68763;SDS011;55754;52.038;5.566;2023-03-23T12:04:57;11.05;;;1.67;;
68763;SDS011;55754;52.038;5.566;2023-03-23T12:10:45;11.60;;;1.90;;
68763;SDS011;55754;52.038;5.566;2023-03-23T12:13:34;7.78;;;1.60;;
68763;SDS011;55754;52.038;5.566;2023-03-23T12:16:23;11.13;;;1.80;;
68763;SDS011;55754;52.038;5.566;2023-03-23T12:27:35;8.13;;;1.83;;
68763;SDS011;55754;52.038;5.566;2023-03-23T12:30:14;7.47;;;1.90;;
68763;SDS011;55754;52.038;5.566;2023-03-23T12:35:57;7.57;;;1.70;;
68763;SDS011;55754;52.038;5.566;2023-03-23T12:41:15;8.07;;;1.70;;
68763;SDS011;55754;52.038;5.566;2023-03-23T12:43:51;9.33;;;1.60;;
68763;SDS011;55754;52.038;5.566;2023-03-23T12:48:55;7.97;;;2.15;;
68763;SDS011;55754;52.038;5.566;2023-03-23T12:54:09;8.27;;;1.80;;
68763;SDS011;55754;52.038;5.566;2023-03-23T13:02:03;8.15;;;2.10;;
68763;SDS011;55754;52.038;5.566;2023-03-23T13:04:37;7.88;;;1.55;;
68763;SDS011;55754;52.038;5.566;2023-03-23T13:07:10;7.32;;;1.80;;
68763;SDS011;55754;52.038;5.566;2023-03-23T13:12:34;9.55;;;1.85;;
68763;SDS011;55754;52.038;5.566;2023-03-23T13:15:25;6.10;;;1.63;;
68763;SDS011;55754;52.038;5.566;2023-03-23T13:20:39;9.45;;;1.70;;
68763;SDS011;55754;52.038;5.566;2023-03-23T13:23:28;7.17;;;1.50;;
68763;SDS011;55754;52.038;5.566;2023-03-23T13:31:28;12.02;;;4.28;;
68763;SDS011;55754;52.038;5.566;2023-03-23T13:36:55;8.13;;;1.83;;
68763;SDS011;55754;52.038;5.566;2023-03-23T13:39:24;10.10;;;1.70;;
68763;SDS011;55754;52.038;5.566;2023-03-23T13:47:20;8.73;;;1.65;;
68763;SDS011;55754;52.038;5.566;2023-03-23T13:49:51;4.57;;;1.33;;
68763;SDS011;55754;52.038;5.566;2023-03-23T13:55:19;6.28;;;1.60;;
68763;SDS011;55754;52.038;5.566;2023-03-23T14:08:24;6.47;;;1.70;;
68763;SDS011;55754;52.038;5.566;2023-03-23T14:11:10;9.82;;;3.20;;
68763;SDS011;55754;52.038;5.566;2023-03-23T14:13:57;8.10;;;1.77;;
68763;SDS011;55754;52.038;5.566;2023-03-23T14:16:36;7.93;;;1.77;;
68763;SDS011;55754;52.038;5.566;2023-03-23T14:19:12;7.18;;;1.88;;
68763;SDS011;55754;52.038;5.566;2023-03-23T14:21:58;7.30;;;1.63;;
68763;SDS011;55754;52.038;5.566;2023-03-23T14:24:31;12.10;;;2.13;;
68763;SDS011;55754;52.038;5.566;2023-03-23T14:27:19;7.28;;;1.83;;
68763;SDS011;55754;52.038;5.566;2023-03-23T14:29:57;7.45;;;1.70;;
68763;SDS011;55754;52.038;5.566;2023-03-23T14:32:24;9.82;;;2.00;;
68763;SDS011;55754;52.038;5.566;2023-03-23T14:34:53;7.47;;;1.40;;
68763;SDS011;55754;52.038;5.566;2023-03-23T14:37:20;7.72;;;1.63;;
68763;SDS011;55754;52.038;5.566;2023-03-23T14:39:47;12.75;;;1.83;;
68763;SDS011;55754;52.038;5.566;2023-03-23T14:42:16;8.98;;;1.50;;
68763;SDS011;55754;52.038;5.566;2023-03-23T14:44:45;7.72;;;1.40;;
68763;SDS011;55754;52.038;5.566;2023-03-23T14:47:18;7.17;;;2.17;;
68763;SDS011;55754;52.038;5.566;2023-03-23T14:49:53;7.85;;;1.73;;
68763;SDS011;55754;52.038;5.566;2023-03-23T14:52:21;9.02;;;2.88;;
68763;SDS011;55754;52.038;5.566;2023-03-23T14:54:49;9.82;;;3.40;;
68763;SDS011;55754;52.038;5.566;2023-03-23T14:59:49;7.60;;;1.70;;
68763;SDS011;55754;52.038;5.566;2023-03-23T15:02:17;6.97;;;1.48;;
68763;SDS011;55754;52.038;5.566;2023-03-23T15:04:45;7.95;;;1.63;;
68763;SDS011;55754;52.038;5.566;2023-03-23T15:07:14;10.02;;;1.65;;
68763;SDS011;55754;52.038;5.566;2023-03-23T15:09:43;8.32;;;1.65;;
68763;SDS011;55754;52.038;5.566;2023-03-23T15:12:19;8.80;;;2.10;;
68763;SDS011;55754;52.038;5.566;2023-03-23T15:14:49;9.45;;;1.63;;
68763;SDS011;55754;52.038;5.566;2023-03-23T15:17:27;8.70;;;1.75;;
68763;SDS011;55754;52.038;5.566;2023-03-23T15:19:55;7.38;;;1.60;;
68763;SDS011;55754;52.038;5.566;2023-03-23T15:22:29;12.93;;;2.33;;
68763;SDS011;55754;52.038;5.566;2023-03-23T15:25:12;10.13;;;2.33;;
68763;SDS011;55754;52.038;5.566;2023-03-23T15:27:49;9.48;;;2.90;;
68763;SDS011;55754;52.038;5.566;2023-03-23T15:32:52;13.82;;;3.58;;
68763;SDS011;55754;52.038;5.566;2023-03-23T15:35:32;10.82;;;4.00;;
68763;SDS011;55754;52.038;5.566;2023-03-23T15:38:15;10.40;;;3.00;;
68763;SDS011;55754;52.038;5.566;2023-03-23T15:40:51;12.40;;;2.38;;
68763;SDS011;55754;52.038;5.566;2023-03-23T15:43:19;11.18;;;3.10;;
68763;SDS011;55754;52.038;5.566;2023-03-23T15:45:58;12.27;;;2.13;;
68763;SDS011;55754;52.038;5.566;2023-03-23T15:48:31;11.15;;;2.60;;
68763;SDS011;55754;52.038;5.566;2023-03-23T15:50:58;15.87;;;6.00;;
68763;SDS011;55754;52.038;5.566;2023-03-23T15:56:02;10.43;;;3.25;;
68763;SDS011;55754;52.038;5.566;2023-03-23T15:58:29;9.55;;;2.00;;
68763;SDS011;55754;52.038;5.566;2023-03-23T16:00:56;8.38;;;2.40;;
68763;SDS011;55754;52.038;5.566;2023-03-23T16:03:23;15.77;;;4.70;;
68763;SDS011;55754;52.038;5.566;2023-03-23T16:05:52;11.85;;;2.50;;
68763;SDS011;55754;52.038;5.566;2023-03-23T16:08:24;9.23;;;2.47;;
68763;SDS011;55754;52.038;5.566;2023-03-23T16:10:50;9.52;;;2.10;;
68763;SDS011;55754;52.038;5.566;2023-03-23T16:13:16;11.43;;;2.80;;
68763;SDS011;55754;52.038;5.566;2023-03-23T16:15:42;10.13;;;2.33;;
68763;SDS011;55754;52.038;5.566;2023-03-23T16:18:13;9.50;;;3.00;;
68763;SDS011;55754;52.038;5.566;2023-03-23T16:20:45;10.73;;;3.00;;
68763;SDS011;55754;52.038;5.566;2023-03-23T16:23:13;14.13;;;4.37;;
68763;SDS011;55754;52.038;5.566;2023-03-23T16:25:39;9.20;;;3.00;;
68763;SDS011;55754;52.038;5.566;2023-03-23T16:28:04;9.68;;;3.05;;
68763;SDS011;55754;52.038;5.566;2023-03-23T16:30:32;10.10;;;2.67;;
68763;SDS011;55754;52.038;5.566;2023-03-23T16:32:59;12.77;;;3.97;;
68763;SDS011;55754;52.038;5.566;2023-03-23T16:35:25;11.73;;;4.37;;
68763;SDS011;55754;52.038;5.566;2023-03-23T16:37:51;13.63;;;3.00;;
68763;SDS011;55754;52.038;5.566;2023-03-23T16:40:19;9.65;;;3.45;;
68763;SDS011;55754;52.038;5.566;2023-03-23T16:42:45;13.63;;;4.87;;
68763;SDS011;55754;52.038;5.566;2023-03-23T16:45:11;12.68;;;5.68;;
68763;SDS011;55754;52.038;5.566;2023-03-23T16:47:38;9.57;;;2.40;;
68763;SDS011;55754;52.038;5.566;2023-03-23T16:50:05;11.75;;;3.13;;
68763;SDS011;55754;52.038;5.566;2023-03-23T16:52:35;11.05;;;2.38;;
68763;SDS011;55754;52.038;5.566;2023-03-23T16:55:01;10.80;;;3.03;;
68763;SDS011;55754;52.038;5.566;2023-03-23T16:57:27;11.88;;;3.15;;
68763;SDS011;55754;52.038;5.566;2023-03-23T16:59:54;9.18;;;2.70;;
68763;SDS011;55754;52.038;5.566;2023-03-23T17:02:22;11.32;;;2.95;;
68763;SDS011;55754;52.038;5.566;2023-03-23T17:04:48;13.95;;;3.20;;